Погода Козырина неделю

Минская область, Белоруссия

24 - 30 мая
  • 24мая
    Сегодня
    +10°
    +24°
    Небольшая облачность
    ВремяПогодаТемператураВлажностьДавлениеВетер, м/сВероятность осадков
    00:00Облачно с прояснениями+15°C73 %751 мм3.0 м/с2 %
    03:00Облачно с прояснениями+14°C59 %752 мм3.1 м/с2 %
    06:00Облачно с прояснениями+12°C63 %753 мм3.0 м/с2 %
    09:00Небольшая облачность+17°C55 %753 мм4.5 м/с2 %
    12:00Небольшая облачность+21°C47 %754 мм5.2 м/с2 %
    15:00Небольшая облачность+24°C42 %753 мм5.0 м/с2 %
    18:00Практически безоблачно+23°C44 %753 мм5.4 м/с2 %
    21:00Ясно и безоблачно+18°C57 %753 мм3.4 м/с2 %
  • 25мая
    Суббота
    +9°
    +25°
    Практически безоблачно
    ВремяПогодаТемператураВлажностьДавлениеВетер, м/сВероятность осадков
    00:00Небольшая облачность+13°C64 %753 мм2.8 м/с2 %
    03:00Небольшая облачность+12°C67 %753 мм2.3 м/с2 %
    06:00Облачно с прояснениями+11°C71 %753 мм2.2 м/с2 %
    09:00Облачно с прояснениями+17°C61 %753 мм3.7 м/с2 %
    12:00Облачно с прояснениями+22°C51 %753 мм4.5 м/с2 %
    15:00Практически безоблачно+24°C41 %752 мм4.7 м/с6 %
    18:00Облачно с прояснениями+24°C41 %751 мм4.7 м/с16 %
    21:00Облачно с прояснениями+19°C61 %751 мм2.8 м/с3 %
  • 26мая
    Воскресенье
    +11°
    +25°
    Облачно с прояснениями
    ВремяПогодаТемператураВлажностьДавлениеВетер, м/сВероятность осадков
    00:00Ясно и безоблачно+14°C60 %751 мм2.4 м/с2 %
    03:00Ясно и безоблачно+12°C64 %751 мм1.7 м/с1 %
    06:00Ясно и безоблачно+10°C73 %751 мм1.3 м/с2 %
    09:00Ясно и безоблачно+18°C58 %752 мм2.0 м/с2 %
    12:00Облачно с прояснениями+22°C38 %752 мм4.0 м/с2 %
    15:00Облачно с прояснениями+24°C36 %752 мм3.2 м/с2 %
    18:00Ясно и безоблачно+25°C34 %751 мм3.9 м/с2 %
    21:00Ясно и безоблачно+19°C59 %751 мм1.6 м/с2 %
  • 27мая
    Понедельник
    +12°
    +27°
    Практически безоблачно
    ВремяПогодаТемператураВлажностьДавлениеВетер, м/сВероятность осадков
    00:00Ясно и безоблачно+14°C63 %751 мм1.4 м/с2 %
    03:00Ясно и безоблачно+13°C80 %751 мм0.8 м/с2 %
    06:00Ясно и безоблачно+12°C78 %752 мм1.5 м/с2 %
    09:00Ясно и безоблачно+20°C68 %752 мм2.2 м/с2 %
    12:00Ясно и безоблачно+24°C41 %752 мм3.7 м/с4 %
    15:00Практически безоблачно+26°C41 %752 мм3.3 м/с12 %
    18:00Практически безоблачно+26°C46 %751 мм3.8 м/с44 %
    21:00Ясно и безоблачно+20°C79 %751 мм1.5 м/с10 %
  • 28мая
    Вторник
    +13°
    +26°
    Практически безоблачно
    ВремяПогодаТемператураВлажностьДавлениеВетер, м/сВероятность осадков
    00:00Ясно и безоблачно+16°C88 %751 мм1.8 м/с2 %
    03:00Ясно и безоблачно+14°C90 %751 мм1.1 м/с2 %
    06:00Ясно и безоблачно+13°C89 %751 мм1.6 м/с2 %
    09:00Ясно и безоблачно+20°C72 %751 мм2.9 м/с2 %
    12:00Практически безоблачно+24°C53 %751 мм4.0 м/с2 %
    15:00Практически безоблачно+26°C51 %751 мм3.3 м/с9 %
    18:00Ясно и безоблачно+24°C46 %750 мм3.6 м/с13 %
    21:00Ясно и безоблачно+20°C62 %749 мм2.0 м/с4 %
Мы используем cookies
Соглашаюсь